createdAt,value
2023-02-07T00:00:46.194Z,34.00
2023-02-07T00:03:15.881Z,36.33
2023-02-07T00:05:45.523Z,37.67
2023-02-07T00:08:15.261Z,33.00
2023-02-07T00:10:44.889Z,35.33
2023-02-07T00:13:12.751Z,33.50
2023-02-07T00:15:40.616Z,31.00
2023-02-07T00:18:09.396Z,39.00
2023-02-07T00:20:38.929Z,30.33
2023-02-07T00:23:07.697Z,31.00
2023-02-07T00:25:37.524Z,34.00
2023-02-07T00:28:05.645Z,33.00
2023-02-07T00:30:35.310Z,34.00
2023-02-07T00:33:04.012Z,35.33
2023-02-07T00:35:33.714Z,36.00
2023-02-07T00:38:02.381Z,33.33
2023-02-07T00:40:32.052Z,36.67
2023-02-07T00:43:01.607Z,36.00
2023-02-07T00:45:29.424Z,34.00
2023-02-07T00:47:58.128Z,33.80
2023-02-07T00:50:26.960Z,36.20
2023-02-07T00:52:56.396Z,44.20
2023-02-07T00:55:26.059Z,41.33
2023-02-07T00:57:55.572Z,33.83
2023-02-07T01:00:23.664Z,30.00
2023-02-07T01:02:53.205Z,36.00
2023-02-07T01:05:22.729Z,34.00
2023-02-07T01:07:50.640Z,34.00
2023-02-07T01:10:21.107Z,33.67
2023-02-07T01:12:51.784Z,38.33
2023-02-07T01:15:21.763Z,39.00
2023-02-07T01:17:51.465Z,36.00
2023-02-07T01:20:21.199Z,34.50
2023-02-07T01:22:50.191Z,37.00
2023-02-07T01:25:18.807Z,33.00
2023-02-07T01:27:47.554Z,34.00
2023-02-07T01:30:16.543Z,32.60
2023-02-07T01:32:45.476Z,27.50
2023-02-07T01:35:14.324Z,40.40
2023-02-07T01:37:43.964Z,46.00
2023-02-07T01:40:14.875Z,46.00
2023-02-07T01:42:44.461Z,43.67
2023-02-07T01:45:38.739Z,40.00
2023-02-07T01:48:25.627Z,38.33
2023-02-07T01:51:00.795Z,35.33
2023-02-07T01:53:33.028Z,31.00
2023-02-07T01:56:09.320Z,33.33
2023-02-07T01:58:38.916Z,27.00
2023-02-07T02:01:19.630Z,34.00
2023-02-07T02:03:53.749Z,30.00
2023-02-07T02:06:25.790Z,34.00
2023-02-07T02:09:01.817Z,30.00
2023-02-07T02:11:49.195Z,30.00
2023-02-07T02:15:02.701Z,30.00
2023-02-07T02:17:44.522Z,27.00
2023-02-07T02:21:13.941Z,33.40
2023-02-07T02:24:44.276Z,32.33
2023-02-07T02:28:03.411Z,28.00
2023-02-07T02:31:39.190Z,28.00
2023-02-07T02:34:33.761Z,18.50
2023-02-07T02:37:43.070Z,24.00
2023-02-07T02:40:36.702Z,27.00
2023-02-07T02:43:39.860Z,26.33
2023-02-07T02:46:27.007Z,27.40
2023-02-07T02:48:58.269Z,30.00
2023-02-07T02:51:31.387Z,30.50
2023-02-07T02:54:01.833Z,39.00
2023-02-07T02:56:52.282Z,36.50
2023-02-07T02:59:47.051Z,3.33
2023-02-07T03:02:58.735Z,25.00
2023-02-07T03:06:13.110Z,33.80
2023-02-07T03:09:38.683Z,30.00
2023-02-07T03:12:47.515Z,25.00
2023-02-07T03:15:37.245Z,37.67
2023-02-07T03:18:15.761Z,37.00
2023-02-07T03:20:57.251Z,35.60
2023-02-07T03:23:27.053Z,24.00
2023-02-07T03:25:59.344Z,31.00
2023-02-07T03:28:31.514Z,31.80
2023-02-07T03:31:03.672Z,24.33
2023-02-07T03:33:32.984Z,23.00
2023-02-07T03:36:18.075Z,24.00
2023-02-07T03:38:47.480Z,30.20
2023-02-07T03:41:38.778Z,33.00
2023-02-07T03:44:11.973Z,27.00
2023-02-07T03:46:41.301Z,30.00
2023-02-07T03:49:11.729Z,30.00
2023-02-07T03:51:39.573Z,30.00
2023-02-07T03:54:10.191Z,24.00
2023-02-07T03:56:38.782Z,24.00
2023-02-07T03:59:08.543Z,26.00
2023-02-07T04:01:42.070Z,25.00
2023-02-07T04:04:11.588Z,32.33
2023-02-07T04:06:41.134Z,34.67
2023-02-07T04:09:11.891Z,35.33
2023-02-07T04:11:41.501Z,35.33
2023-02-07T04:14:11.059Z,35.33
2023-02-07T04:16:40.711Z,34.00
2023-02-07T04:19:09.440Z,33.50
2023-02-07T04:21:38.229Z,34.00
2023-02-07T04:24:07.265Z,33.20
2023-02-07T04:26:36.843Z,36.00
2023-02-07T04:29:06.041Z,32.00
2023-02-07T04:31:35.659Z,32.67
2023-02-07T04:34:06.164Z,32.20
2023-02-07T04:36:36.473Z,33.00
2023-02-07T04:39:06.070Z,35.00
2023-02-07T04:41:35.733Z,52.17
2023-02-07T04:44:05.398Z,34.00
2023-02-07T04:46:35.029Z,33.33
2023-02-07T04:49:04.769Z,33.00
2023-02-07T04:51:34.428Z,36.17
2023-02-07T04:54:04.449Z,37.00
2023-02-07T04:56:36.262Z,32.67
2023-02-07T04:59:05.184Z,30.00
2023-02-07T05:01:34.845Z,48.67
2023-02-07T05:04:03.757Z,49.00
2023-02-07T05:06:32.652Z,32.00
2023-02-07T05:09:02.262Z,33.67
2023-02-07T05:11:30.999Z,33.00
2023-02-07T05:13:59.744Z,30.00
2023-02-07T05:16:29.451Z,36.00
2023-02-07T05:18:57.292Z,30.00
2023-02-07T05:21:26.872Z,33.67
2023-02-07T05:23:56.494Z,39.67
2023-02-07T05:26:26.126Z,36.00
2023-02-07T05:28:55.792Z,52.17
2023-02-07T05:31:45.573Z,65.83
2023-02-07T05:34:15.291Z,57.83
2023-02-07T05:36:45.052Z,65.00
2023-02-07T05:39:14.657Z,66.83
2023-02-07T05:41:44.310Z,60.83
2023-02-07T05:44:14.032Z,71.50
2023-02-07T05:46:43.784Z,83.33
2023-02-07T05:49:13.496Z,71.00
2023-02-07T05:51:43.141Z,85.50
2023-02-07T05:54:12.865Z,76.67
2023-02-07T05:56:42.502Z,71.17
2023-02-07T05:59:12.355Z,76.67
2023-02-07T06:01:41.228Z,35.20
2023-02-07T06:04:09.126Z,30.00
2023-02-07T06:06:37.066Z,41.00
2023-02-07T06:09:05.928Z,41.20
2023-02-07T06:11:34.735Z,45.00
2023-02-07T06:14:04.386Z,50.17
2023-02-07T06:16:33.194Z,46.60
2023-02-07T06:19:02.887Z,54.50
2023-02-07T06:21:45.764Z,58.83
2023-02-07T06:24:17.022Z,77.33
2023-02-07T06:26:47.035Z,72.67
2023-02-07T06:29:16.965Z,59.00
2023-02-07T06:31:46.761Z,66.00
2023-02-07T06:34:15.602Z,36.20
2023-02-07T06:36:44.399Z,39.00
2023-02-07T06:39:12.339Z,36.00
2023-02-07T06:41:42.054Z,39.33
2023-02-07T06:44:12.052Z,38.33
2023-02-07T06:46:41.737Z,41.67
2023-02-07T06:49:12.424Z,38.00
2023-02-07T06:51:41.240Z,33.20
2023-02-07T06:54:10.492Z,35.20
2023-02-07T06:56:40.141Z,42.00
2023-02-07T06:59:09.809Z,42.00
2023-02-07T07:01:39.505Z,49.67
2023-02-07T07:04:09.394Z,46.67
2023-02-07T07:06:39.190Z,66.33
2023-02-07T07:09:08.928Z,62.00
2023-02-07T07:11:43.145Z,62.67
2023-02-07T07:14:13.650Z,41.33
2023-02-07T07:16:43.346Z,47.33
2023-02-07T07:19:13.490Z,45.00
2023-02-07T07:21:43.297Z,48.00
2023-02-07T07:24:13.891Z,114.25
2023-02-07T07:26:49.819Z,81.75
2023-02-07T07:29:19.720Z,70.50
2023-02-07T07:31:50.523Z,75.25
2023-02-07T07:34:21.173Z,57.50
2023-02-07T07:36:50.857Z,52.00
2023-02-07T07:39:21.922Z,56.33
2023-02-07T07:41:51.933Z,54.00
2023-02-07T07:44:21.593Z,39.67
2023-02-07T07:46:51.140Z,36.33
2023-02-07T07:49:20.965Z,36.67
2023-02-07T07:51:50.596Z,44.00
2023-02-07T07:54:18.606Z,34.00
2023-02-07T07:56:48.256Z,41.33
2023-02-07T07:59:23.819Z,38.00
2023-02-07T08:01:53.014Z,37.50
2023-02-07T08:04:20.871Z,31.00
2023-02-07T08:06:49.421Z,32.67
2023-02-07T08:09:17.091Z,34.00
2023-02-07T08:11:44.982Z,34.00
2023-02-07T08:14:12.757Z,32.00
2023-02-07T08:16:41.530Z,33.00
2023-02-07T08:19:11.075Z,35.00
2023-02-07T08:21:40.702Z,35.67
2023-02-07T08:24:08.531Z,32.50
2023-02-07T08:26:38.430Z,32.33
2023-02-07T08:29:08.121Z,44.67
2023-02-07T08:31:37.712Z,35.33
2023-02-07T08:34:06.523Z,33.00
2023-02-07T08:36:35.248Z,32.00
2023-02-07T08:39:05.745Z,31.00
2023-02-07T08:41:35.293Z,2.67
2023-02-07T08:44:03.858Z,39.00
2023-02-07T08:46:32.624Z,30.00
2023-02-07T08:49:00.727Z,28.50
2023-02-07T08:51:29.139Z,23.00
2023-02-07T08:53:56.937Z,28.00
2023-02-07T08:56:24.818Z,31.00
2023-02-07T08:58:53.514Z,30.50
2023-02-07T09:01:21.306Z,28.00
2023-02-07T09:03:49.099Z,29.50
2023-02-07T09:06:16.879Z,28.00
2023-02-07T09:08:44.707Z,24.00
2023-02-07T09:11:12.567Z,30.50
2023-02-07T09:13:42.463Z,25.50
2023-02-07T09:16:11.824Z,27.50
2023-02-07T09:18:39.829Z,25.00
2023-02-07T09:21:09.153Z,24.50
2023-02-07T09:23:38.963Z,23.67
2023-02-07T09:26:19.266Z,13.00
2023-02-07T09:28:49.097Z,24.33
2023-02-07T09:31:18.247Z,25.50
2023-02-07T09:33:47.798Z,25.00
2023-02-07T09:36:24.921Z,20.50
2023-02-07T09:38:53.552Z,26.00
2023-02-07T09:41:52.848Z,27.00
2023-02-07T09:44:54.979Z,18.00
2023-02-07T09:47:27.073Z,24.50
2023-02-07T09:50:15.554Z,27.00
2023-02-07T09:52:56.482Z,5.00
2023-02-07T09:56:05.387Z,18.00
2023-02-07T09:59:20.916Z,22.00
2023-02-07T10:01:57.859Z,21.00
2023-02-07T10:04:48.858Z,22.00
2023-02-07T10:07:17.652Z,22.00
2023-02-07T10:09:47.514Z,21.50
2023-02-07T10:13:08.715Z,12.00
2023-02-07T10:16:16.755Z,15.33
2023-02-07T10:19:28.088Z,19.00
2023-02-07T10:22:32.303Z,19.00
2023-02-07T10:25:52.216Z,33.00
2023-02-07T10:28:26.696Z,31.00
2023-02-07T10:30:59.850Z,14.67
2023-02-07T10:33:47.103Z,20.00
2023-02-07T10:36:19.457Z,23.67
2023-02-07T10:39:23.071Z,20.00
2023-02-07T10:41:55.960Z,20.00
2023-02-07T10:44:26.081Z,18.00
2023-02-07T10:47:04.552Z,18.67
2023-02-07T10:49:37.064Z,23.00
2023-02-07T10:52:28.925Z,24.00
2023-02-07T10:55:07.864Z,18.00
2023-02-07T10:57:36.899Z,20.50
2023-02-07T11:00:32.560Z,25.00
2023-02-07T11:03:13.500Z,19.00
2023-02-07T11:06:02.930Z,24.67
2023-02-07T11:08:35.211Z,21.00
2023-02-07T11:11:33.360Z,20.00
2023-02-07T11:14:10.894Z,30.33
2023-02-07T11:16:45.104Z,21.50
2023-02-07T11:19:24.697Z,26.00
2023-02-07T11:22:20.696Z,26.00
2023-02-07T11:24:53.800Z,25.50
2023-02-07T11:27:23.972Z,26.00
2023-02-07T11:29:59.880Z,29.50
2023-02-07T11:32:29.334Z,29.00
2023-02-07T11:35:01.723Z,28.00
2023-02-07T11:37:48.385Z,30.00
2023-02-07T11:40:24.939Z,31.50
2023-02-07T11:43:16.500Z,31.00
2023-02-07T11:45:50.852Z,28.50
2023-02-07T11:48:29.568Z,26.50
2023-02-07T11:51:03.968Z,29.00
2023-02-07T11:53:41.927Z,25.00
2023-02-07T11:56:38.455Z,29.50
2023-02-07T11:59:18.707Z,21.33
2023-02-07T12:02:03.616Z,26.33
2023-02-07T12:04:38.344Z,26.00
2023-02-07T12:07:28.027Z,26.00
2023-02-07T12:10:01.598Z,18.00
2023-02-07T12:13:11.401Z,27.33
2023-02-07T12:15:49.734Z,23.00
2023-02-07T12:18:43.312Z,26.00
2023-02-07T12:21:36.575Z,23.33
2023-02-07T12:24:45.696Z,23.00
2023-02-07T12:27:19.022Z,26.00
2023-02-07T12:30:37.695Z,25.33
2023-02-07T12:34:01.817Z,24.00
2023-02-07T12:37:14.354Z,19.00
2023-02-07T12:39:56.906Z,18.00
2023-02-07T12:42:39.663Z,19.00
2023-02-07T12:45:17.878Z,16.50
2023-02-07T12:48:24.039Z,19.00
2023-02-07T12:51:29.583Z,21.00
2023-02-07T12:54:30.122Z,17.50
2023-02-07T12:58:14.631Z,21.50
2023-02-07T13:01:16.094Z,22.50
2023-02-07T13:04:22.320Z,21.00
2023-02-07T13:07:45.749Z,19.50
2023-02-07T13:10:26.582Z,21.50
2023-02-07T13:13:24.017Z,18.00
2023-02-07T13:16:17.197Z,20.00
2023-02-07T13:19:33.239Z,13.00
2023-02-07T13:22:49.593Z,19.00
2023-02-07T13:25:41.405Z,21.00
2023-02-07T13:28:54.687Z,18.00
2023-02-07T13:31:46.597Z,18.00
2023-02-07T13:34:57.499Z,21.00
2023-02-07T13:38:27.989Z,17.50
2023-02-07T13:41:56.539Z,18.00
2023-02-07T13:44:56.431Z,21.00
2023-02-07T13:48:06.631Z,20.00
2023-02-07T13:51:24.821Z,19.00
2023-02-07T13:54:24.918Z,19.00
2023-02-07T13:57:21.424Z,21.00
2023-02-07T14:00:25.269Z,18.00
2023-02-07T14:03:03.665Z,40.00
2023-02-07T14:05:44.933Z,19.33
2023-02-07T14:08:18.986Z,20.00
2023-02-07T14:10:56.893Z,18.00
2023-02-07T14:13:35.667Z,40.33
2023-02-07T14:16:14.050Z,73.25
2023-02-07T14:18:45.589Z,20.00
2023-02-07T14:21:22.670Z,23.00
2023-02-07T14:24:11.275Z,18.00
2023-02-07T14:26:39.943Z,30.50
2023-02-07T14:29:27.100Z,18.00
2023-02-07T14:32:30.628Z,38.33
2023-02-07T14:35:17.022Z,31.00
2023-02-07T14:38:41.704Z,23.00
2023-02-07T14:41:14.705Z,18.00
2023-02-07T14:44:09.276Z,24.50
2023-02-07T14:46:42.183Z,30.00
2023-02-07T14:49:42.726Z,29.00
2023-02-07T14:52:31.129Z,20.00
2023-02-07T14:55:19.347Z,20.50
2023-02-07T14:57:57.353Z,19.50
2023-02-07T15:00:34.992Z,21.00
2023-02-07T15:03:15.134Z,24.33
2023-02-07T15:05:59.673Z,24.50
2023-02-07T15:08:34.999Z,23.00
2023-02-07T15:11:08.825Z,27.00
2023-02-07T15:13:46.360Z,25.00
2023-02-07T15:16:28.554Z,25.00
2023-02-07T15:19:18.454Z,26.50
2023-02-07T15:21:51.088Z,26.50
2023-02-07T15:24:51.061Z,26.00
2023-02-07T15:27:25.836Z,24.00
2023-02-07T15:30:02.083Z,25.00
2023-02-07T15:32:42.045Z,24.67
2023-02-07T15:35:23.957Z,32.67
2023-02-07T15:37:53.821Z,31.00
2023-02-07T15:40:26.780Z,31.00
2023-02-07T15:42:58.959Z,35.00
2023-02-07T15:45:33.505Z,34.50
2023-02-07T15:48:14.539Z,37.67
2023-02-07T15:50:44.288Z,35.00
2023-02-07T15:53:26.856Z,35.00
2023-02-07T15:55:56.119Z,35.67
2023-02-07T15:58:34.890Z,36.00
2023-02-07T16:01:27.209Z,32.00
2023-02-07T16:03:58.590Z,34.33
2023-02-07T16:06:31.109Z,39.00
2023-02-07T16:09:04.522Z,37.33
2023-02-07T16:11:39.926Z,46.00
2023-02-07T16:14:25.852Z,57.33
2023-02-07T16:16:58.889Z,77.75
2023-02-07T16:19:31.958Z,99.25
2023-02-07T16:22:10.207Z,113.33
2023-02-07T16:24:44.476Z,114.33
2023-02-07T16:27:27.486Z,72.67
2023-02-07T16:30:00.842Z,68.75
2023-02-07T16:32:36.108Z,65.75
2023-02-07T16:35:19.021Z,57.33
2023-02-07T16:37:49.642Z,52.67
2023-02-07T16:40:22.587Z,59.33
2023-02-07T16:42:56.104Z,63.75
2023-02-07T16:45:29.361Z,48.33
2023-02-07T16:48:00.927Z,48.33
2023-02-07T16:50:31.876Z,49.33
2023-02-07T16:53:01.593Z,47.33
2023-02-07T16:55:40.275Z,48.00
2023-02-07T16:58:28.774Z,48.00
2023-02-07T17:00:58.781Z,55.67
2023-02-07T17:03:28.527Z,56.00
2023-02-07T17:05:59.004Z,65.00
2023-02-07T17:08:30.294Z,57.67
2023-02-07T17:11:03.819Z,48.67
2023-02-07T17:13:33.667Z,48.00
2023-02-07T17:16:03.377Z,47.33
2023-02-07T17:18:32.999Z,53.67
2023-02-07T17:21:02.710Z,55.00
2023-02-07T17:23:32.791Z,53.67
2023-02-07T17:26:04.216Z,53.33
2023-02-07T17:28:33.858Z,61.67
2023-02-07T17:31:04.652Z,79.00
2023-02-07T17:33:34.442Z,72.67
2023-02-07T17:36:06.734Z,77.75
2023-02-07T17:38:36.542Z,96.67
2023-02-07T17:41:08.187Z,102.33
2023-02-07T17:43:41.538Z,83.00
2023-02-07T17:46:25.307Z,77.33
2023-02-07T17:48:56.167Z,67.50
2023-02-07T17:51:28.961Z,72.00
2023-02-07T17:53:59.572Z,78.50
2023-02-07T17:56:32.963Z,83.00
2023-02-07T17:59:06.857Z,58.00
2023-02-07T18:01:37.369Z,66.50
2023-02-07T18:04:07.061Z,63.67
2023-02-07T18:06:37.564Z,72.00
2023-02-07T18:09:07.709Z,75.33
2023-02-07T18:11:37.437Z,72.00
2023-02-07T18:14:07.300Z,91.00
2023-02-07T18:16:37.238Z,82.00
2023-02-07T18:19:07.407Z,80.33
2023-02-07T18:21:37.591Z,79.33
2023-02-07T18:24:07.971Z,101.67
2023-02-07T18:26:38.143Z,109.33
2023-02-07T18:29:08.549Z,123.00
2023-02-07T18:31:41.945Z,130.67
2023-02-07T18:34:11.709Z,111.00
2023-02-07T18:36:41.506Z,103.00
2023-02-07T18:39:12.433Z,128.33
2023-02-07T18:41:43.365Z,113.50
2023-02-07T18:44:14.061Z,106.33
2023-02-07T18:46:43.921Z,78.00
2023-02-07T18:49:14.564Z,79.33
2023-02-07T18:51:44.221Z,58.83
2023-02-07T18:54:14.412Z,48.33
2023-02-07T18:56:47.634Z,48.33
2023-02-07T18:59:17.997Z,51.00
2023-02-07T19:01:53.606Z,46.00
2023-02-07T19:04:24.242Z,48.67
2023-02-07T19:06:55.442Z,54.00
2023-02-07T19:09:25.915Z,60.00
2023-02-07T19:12:00.105Z,63.33
2023-02-07T19:14:32.128Z,80.33
2023-02-07T19:17:02.488Z,106.67
2023-02-07T19:19:33.896Z,115.00
2023-02-07T19:22:03.742Z,101.67
2023-02-07T19:24:33.746Z,85.67
2023-02-07T19:27:05.324Z,54.67
2023-02-07T19:29:33.486Z,39.00
2023-02-07T19:32:09.600Z,42.00
2023-02-07T19:34:38.485Z,42.00
2023-02-07T19:37:08.195Z,57.67
2023-02-07T19:39:37.777Z,73.50
2023-02-07T19:42:07.469Z,68.00
2023-02-07T19:44:37.126Z,50.33
2023-02-07T19:47:06.829Z,55.67
2023-02-07T19:49:36.545Z,54.67
2023-02-07T19:52:06.170Z,51.00
2023-02-07T19:54:35.806Z,49.00
2023-02-07T19:57:05.413Z,48.67
2023-02-07T19:59:35.131Z,51.33
2023-02-07T20:02:04.760Z,48.67
2023-02-07T20:04:34.366Z,49.67
2023-02-07T20:07:05.335Z,64.83
2023-02-07T20:09:35.181Z,79.67
2023-02-07T20:12:07.529Z,65.75
2023-02-07T20:14:37.414Z,67.33
2023-02-07T20:17:07.475Z,79.00
2023-02-07T20:19:38.521Z,72.50
2023-02-07T20:22:08.329Z,73.00
2023-02-07T20:24:38.093Z,72.00
2023-02-07T20:27:07.868Z,69.33
2023-02-07T20:29:37.618Z,88.67
2023-02-07T20:32:07.587Z,101.67
2023-02-07T20:34:40.830Z,92.00
2023-02-07T20:37:12.034Z,100.67
2023-02-07T20:39:41.743Z,69.67
2023-02-07T20:42:11.456Z,57.67
2023-02-07T20:44:41.171Z,62.00
2023-02-07T20:47:12.592Z,55.33
2023-02-07T20:49:42.258Z,60.00
2023-02-07T20:52:12.002Z,57.67
2023-02-07T20:54:41.656Z,59.67
2023-02-07T20:57:11.373Z,57.00
2023-02-07T20:59:41.145Z,55.00
2023-02-07T21:02:11.617Z,55.67
2023-02-07T21:04:42.502Z,55.67
2023-02-07T21:07:12.253Z,59.00
2023-02-07T21:09:42.145Z,44.33
2023-02-07T21:12:12.010Z,57.67
2023-02-07T21:14:42.208Z,55.67
2023-02-07T21:17:13.486Z,52.67
2023-02-07T21:19:43.242Z,60.00
2023-02-07T21:22:12.975Z,60.67
2023-02-07T21:24:43.743Z,57.67
2023-02-07T21:27:13.468Z,52.33
2023-02-07T21:29:43.152Z,49.00
2023-02-07T21:32:12.798Z,51.67
2023-02-07T21:34:42.634Z,51.33
2023-02-07T21:37:12.267Z,51.00
2023-02-07T21:39:41.957Z,46.00
2023-02-07T21:42:11.646Z,51.00
2023-02-07T21:44:41.268Z,47.33
2023-02-07T21:47:11.354Z,46.00
2023-02-07T21:49:41.039Z,48.67
2023-02-07T21:52:11.016Z,49.00
2023-02-07T21:54:40.562Z,48.00
2023-02-07T21:57:10.291Z,48.67
2023-02-07T21:59:40.445Z,49.00
2023-02-07T22:02:14.512Z,51.00
2023-02-07T22:04:44.180Z,48.67
2023-02-07T22:07:16.702Z,45.33
2023-02-07T22:09:46.454Z,46.00
2023-02-07T22:12:16.081Z,43.67
2023-02-07T22:14:45.744Z,46.00
2023-02-07T22:17:14.557Z,48.00
2023-02-07T22:19:44.279Z,46.00
2023-02-07T22:22:13.823Z,45.50
2023-02-07T22:24:43.486Z,46.00
2023-02-07T22:27:13.031Z,46.67
2023-02-07T22:29:42.629Z,47.33
2023-02-07T22:32:11.400Z,48.00
2023-02-07T22:34:41.188Z,46.00
2023-02-07T22:37:10.754Z,45.00
2023-02-07T22:39:38.595Z,42.00
2023-02-07T22:42:08.143Z,42.33
2023-02-07T22:44:37.040Z,42.00
2023-02-07T22:47:06.694Z,46.67
2023-02-07T22:49:38.710Z,45.00
2023-02-07T22:52:08.519Z,46.00
2023-02-07T22:54:38.040Z,37.00
2023-02-07T22:57:12.312Z,46.00
2023-02-07T22:59:42.212Z,45.00
2023-02-07T23:02:12.063Z,36.33
2023-02-07T23:04:41.800Z,40.00
2023-02-07T23:07:11.341Z,43.67
2023-02-07T23:09:40.981Z,43.00
2023-02-07T23:12:10.850Z,43.00
2023-02-07T23:14:40.447Z,45.67
2023-02-07T23:17:10.032Z,45.00
2023-02-07T23:19:39.689Z,46.00
2023-02-07T23:22:09.376Z,41.67
2023-02-07T23:24:39.089Z,45.00
2023-02-07T23:27:08.729Z,41.33
2023-02-07T23:29:38.388Z,46.00
2023-02-07T23:32:08.137Z,45.67
2023-02-07T23:34:37.844Z,46.67
2023-02-07T23:37:07.401Z,46.33
2023-02-07T23:39:37.078Z,43.00
2023-02-07T23:42:10.478Z,43.67
2023-02-07T23:44:40.057Z,41.33
2023-02-07T23:47:09.799Z,42.67
2023-02-07T23:49:39.360Z,40.00
2023-02-07T23:52:08.982Z,39.33
2023-02-07T23:54:36.854Z,35.00
2023-02-07T23:57:05.517Z,36.00
2023-02-07T23:59:34.889Z,36.50
